Time;durP1;ratioP1;P1;durP2;ratioP2;P2;SDS_P1;SDS_P2;PMS_P1;PMS_P2;Temp;Humidity;BMP_temperature;BMP_pressure;BME280_temperature;BME280_humidity;BME280_pressure;Samples;Min_cycle;Max_cycle;Signal;HPM_P1;HPM_P2
2022/03/19 00:00:13;;;;;;;35.17;16.87;;;;;;;-2.32;69.35;101429.13;5088411;28;20168;-87
2022/03/19 00:02:38;;;;;;;46.35;20.05;;;;;;;-3.25;69.87;101250.44;5091631;28;20283;-87
2022/03/19 00:05:04;;;;;;;55.33;22.90;;;;;;;-3.52;69.49;101156.97;5067044;28;20263;-86
2022/03/19 00:07:31;;;;;;;66.93;25.43;;;;;;;-1.48;69.62;101547.25;5082180;28;20239;-87
2022/03/19 00:09:56;;;;;;;46.10;18.90;;;;;;;-0.65;69.55;101672.03;5067189;28;20402;-88
2022/03/19 00:12:22;;;;;;;38.60;16.07;;;;;;;-0.64;69.58;101656.44;5085627;28;20173;-87
2022/03/19 00:14:47;;;;;;;41.17;17.73;;;;;;;-2.28;69.17;101366.81;5082908;28;20196;-88
2022/03/19 00:17:13;;;;;;;38.83;17.10;;;;;;;-3.12;68.95;101221.56;5085749;28;20191;-88
2022/03/19 00:19:39;;;;;;;51.27;19.37;;;;;;;-1.95;70.08;101408.22;5085126;28;20164;-87
2022/03/19 00:22:05;;;;;;;47.07;20.20;;;;;;;-2.10;70.92;101416.25;5084999;28;20551;-87
2022/03/19 00:24:31;;;;;;;36.78;16.17;;;;;;;-2.23;71.15;101437.75;5087019;28;20161;-86
2022/03/19 00:26:56;;;;;;;31.47;14.40;;;;;;;-2.00;70.88;101419.16;5092870;28;20238;-86
2022/03/19 00:29:21;;;;;;;29.20;13.77;;;;;;;-0.60;71.17;101639.56;5087415;28;20628;-86
2022/03/19 00:31:47;;;;;;;30.23;14.53;;;;;;;-1.00;70.01;101565.78;5093896;28;20187;-85
2022/03/19 00:34:13;;;;;;;33.60;14.90;;;;;;;-2.39;69.95;101315.88;5086572;28;20185;-86
2022/03/19 00:36:38;;;;;;;31.97;15.33;;;;;;;-1.13;69.47;101529.28;5071246;28;20164;-88
2022/03/19 00:39:05;;;;;;;34.07;14.20;;;;;;;-1.52;67.52;101455.72;5085198;28;20168;-86
2022/03/19 00:41:30;;;;;;;32.20;15.25;;;;;;;-2.97;67.08;101201.88;5084245;28;20179;-86
2022/03/19 00:43:56;;;;;;;33.93;13.63;;;;;;;-1.12;66.87;101534.44;5085671;28;20164;-87
2022/03/19 00:46:21;;;;;;;32.43;15.50;;;;;;;-1.30;67.24;101492.44;5083916;28;20169;-87
2022/03/19 00:48:46;;;;;;;40.47;17.83;;;;;;;-1.00;66.23;101508.59;5066545;28;20174;-87
2022/03/19 00:51:12;;;;;;;40.10;18.63;;;;;;;-2.10;66.10;101298.75;5085858;28;20172;-86
2022/03/19 00:53:37;;;;;;;39.40;18.13;;;;;;;-0.60;66.61;101567.44;5065639;28;20214;-87
2022/03/19 00:56:03;;;;;;;41.50;19.00;;;;;;;-1.25;67.11;101451.66;5065771;28;20186;-86
2022/03/19 00:58:29;;;;;;;30.20;13.87;;;;;;;-3.03;68.88;101224.31;5086572;28;20184;-88
2022/03/19 01:00:54;;;;;;;33.60;14.40;;;;;;;-2.97;69.69;101277.97;5083675;28;20620;-86
2022/03/19 01:03:19;;;;;;;29.23;14.17;;;;;;;-2.46;71.44;101389.31;5085209;28;20631;-87
2022/03/19 01:05:45;;;;;;;30.33;13.77;;;;;;;-2.66;71.14;101337.22;5066487;28;20181;-86
2022/03/19 01:08:13;;;;;;;29.87;12.33;;;;;;;-1.10;73.13;101637.44;5083546;28;20187;-86
2022/03/19 01:10:39;;;;;;;33.65;13.85;;;;;;;-2.65;73.20;101339.03;5080408;28;20192;-87
2022/03/19 01:13:06;;;;;;;27.70;12.83;;;;;;;-2.05;72.15;101416.81;5084456;28;20589;-87
2022/03/19 01:15:31;;;;;;;23.75;11.60;;;;;;;-1.28;74.02;101627.66;5067861;28;20169;-86
2022/03/19 01:17:57;;;;;;;28.77;12.90;;;;;;;-2.04;75.06;101488.97;5062704;28;20181;-87
2022/03/19 01:20:24;;;;;;;28.93;13.40;;;;;;;-2.90;74.35;101298.56;5084459;28;20172;-86
2022/03/19 01:22:50;;;;;;;26.33;12.85;;;;;;;-1.48;73.44;101539.81;5083592;28;20165;-87
2022/03/19 01:25:17;;;;;;;27.08;12.50;;;;;;;-1.06;73.65;101629.63;5082905;28;20637;-86
2022/03/19 01:27:44;;;;;;;26.13;12.13;;;;;;;-3.20;73.52;101254.38;5083969;28;20259;-86
2022/03/19 01:30:12;;;;;;;23.33;11.20;;;;;;;-1.20;73.86;101622.94;5085342;28;20169;-87
2022/03/19 01:32:38;;;;;;;16.90;8.02;;;;;;;-2.67;75.18;101404.88;5065172;28;20185;-86
2022/03/19 01:35:04;;;;;;;16.80;5.95;;;;;;;-2.81;76.31;101389.84;5066919;28;20538;-85
2022/03/19 01:37:30;;;;;;;27.60;12.27;;;;;;;-2.26;77.04;101489.44;5085388;28;20172;-85
2022/03/19 01:39:56;;;;;;;25.73;10.97;;;;;;;-3.07;78.41;101359.25;5082097;28;20168;-86
2022/03/19 01:42:26;;;;;;;28.95;11.90;;;;;;;-1.51;79.17;101621.41;5085025;28;20168;-86
2022/03/19 01:44:53;;;;;;;28.90;11.88;;;;;;;-1.94;79.62;101566.34;5066133;28;20172;-86
2022/03/19 01:47:19;;;;;;;29.15;13.13;;;;;;;-2.04;79.32;101502.97;5081188;28;20188;-85
2022/03/19 01:49:45;;;;;;;26.40;11.02;;;;;;;-4.69;77.42;101007.56;5065900;28;20171;-86
2022/03/19 01:52:10;;;;;;;24.80;10.83;;;;;;;-2.79;77.07;101356.22;5065060;28;20182;-87
2022/03/19 01:54:38;;;;;;;28.00;12.03;;;;;;;-1.26;77.03;101611.34;5083226;28;20200;-87
2022/03/19 01:57:05;;;;;;;27.17;12.40;;;;;;;-3.19;76.72;101289.94;5082678;28;20161;-87
2022/03/19 01:59:34;;;;;;;23.73;11.48;;;;;;;-1.09;76.52;101619.31;5070743;28;20184;-86
2022/03/19 02:02:02;;;;;;;27.98;13.23;;;;;;;-1.31;76.15;101555.22;5067109;28;20242;-88
2022/03/19 02:04:28;;;;;;;31.75;14.95;;;;;;;-2.34;72.67;101368.53;5065379;28;20168;-87
2022/03/19 02:06:54;;;;;;;35.40;14.87;;;;;;;-0.99;72.09;101582.44;5066729;28;20260;-88
2022/03/19 02:09:20;;;;;;;33.13;14.07;;;;;;;-2.49;72.03;101344.28;5066594;28;20156;-87
2022/03/19 02:11:45;;;;;;;37.57;15.60;;;;;;;-3.26;73.50;101204.09;5065929;28;20164;-87
2022/03/19 02:14:11;;;;;;;34.87;14.97;;;;;;;-3.20;74.17;101231.19;5065330;28;20596;-87
2022/03/19 02:16:36;;;;;;;36.13;14.83;;;;;;;-3.78;74.39;101146.25;5065064;28;20646;-86
2022/03/19 02:19:02;;;;;;;41.40;18.60;;;;;;;-2.78;75.94;101384.38;5085604;28;20171;-87
2022/03/19 02:21:46;;;;;;;35.13;15.20;;;;;;;-3.73;76.84;101249.16;5083429;28;20175;-87
2022/03/19 02:26:56;;;;;;;35.35;16.30;;;;;;;-3.61;77.19;101211.13;5084057;28;20181;-87
2022/03/19 02:29:23;;;;;;;37.58;16.17;;;;;;;-1.36;78.89;101638.22;5084287;28;20176;-87
2022/03/19 02:31:52;;;;;;;33.33;15.50;;;;;;;-1.15;77.46;101616.06;5083878;28;20267;-87
2022/03/19 02:34:18;;;;;;;32.15;14.70;;;;;;;-1.37;77.53;101581.78;5065970;28;20248;-88
2022/03/19 02:36:44;;;;;;;37.07;16.60;;;;;;;-2.30;78.15;101425.25;5081242;28;20637;-87
2022/03/19 02:39:21;;;;;;;43.87;17.90;;;;;;;-2.67;77.29;101328.03;5066114;28;20255;-87
2022/03/19 02:41:49;;;;;;;53.88;24.73;;;;;;;-4.44;78.26;101064.38;5061628;28;20234;-88
2022/03/19 02:44:16;;;;;;;50.28;22.05;;;;;;;-1.81;78.17;101541.47;5070842;28;20190;-87
2022/03/19 02:46:47;;;;;;;53.40;20.95;;;;;;;-1.72;78.09;101514.41;5083506;28;20564;-87
2022/03/19 02:49:14;;;;;;;43.63;17.13;;;;;;;-1.44;78.87;101619.00;5081039;28;20177;-87
2022/03/19 02:51:41;;;;;;;47.67;18.85;;;;;;;-4.15;80.81;101242.06;5103256;28;20176;-87
2022/03/19 02:54:09;;;;;;;48.35;20.30;;;;;;;-1.80;81.88;101618.63;5085420;28;20651;-87
2022/03/19 02:56:37;;;;;;;47.78;19.92;;;;;;;-1.83;81.98;101610.78;5063976;28;20628;-87
2022/03/19 02:59:06;;;;;;;48.88;20.02;;;;;;;-1.68;81.31;101598.53;5081730;28;20928;-86
2022/03/19 03:01:31;;;;;;;53.10;23.08;;;;;;;-1.55;81.19;101616.75;5082028;28;20523;-88
2022/03/19 03:03:57;;;;;;;51.60;22.50;;;;;;;-2.45;80.05;101461.44;5082494;28;20192;-87
2022/03/19 03:06:22;;;;;;;49.23;21.60;;;;;;;-4.40;80.18;101114.41;5065775;28;20261;-87
2022/03/19 03:08:48;;;;;;;48.30;20.77;;;;;;;-3.70;79.31;101202.53;5080594;28;20247;-88
2022/03/19 03:11:13;;;;;;;46.13;21.43;;;;;;;-3.51;78.28;101226.44;5082059;28;20168;-87
2022/03/19 03:13:38;;;;;;;53.83;21.17;;;;;;;-1.84;77.95;101493.94;5081498;28;20196;-88
2022/03/19 03:16:05;;;;;;;49.67;22.67;;;;;;;-2.05;78.30;101451.53;5080552;28;20177;-85
2022/03/19 03:18:30;;;;;;;48.88;21.02;;;;;;;-2.30;77.91;101402.94;5086389;28;20172;-87
2022/03/19 03:20:59;;;;;;;39.07;15.50;;;;;;;-1.66;77.61;101485.41;5085237;28;20171;-86
2022/03/19 03:23:26;;;;;;;50.20;22.15;;;;;;;-2.70;77.63;101373.84;5066680;28;20199;-86
2022/03/19 03:25:52;;;;;;;47.65;21.05;;;;;;;-1.10;78.40;101644.88;5065832;28;20180;-87
2022/03/19 03:28:17;;;;;;;36.67;14.53;;;;;;;-3.15;78.46;101278.13;5085118;28;20302;-88
2022/03/19 03:30:42;;;;;;;46.80;20.13;;;;;;;-3.16;79.01;101332.44;5085171;28;20541;-86
2022/03/19 03:33:08;;;;;;;50.53;20.17;;;;;;;-3.10;79.33;101289.50;5065740;28;20188;-88
2022/03/19 03:35:33;;;;;;;50.23;20.67;;;;;;;-1.85;78.28;101490.56;5085826;28;20324;-87
2022/03/19 03:37:59;;;;;;;49.10;21.43;;;;;;;-1.05;78.25;101616.50;5064960;28;20169;-87
2022/03/19 03:40:24;;;;;;;54.40;20.70;;;;;;;-3.95;77.97;101178.72;5082509;28;20669;-87
2022/03/19 03:42:50;;;;;;;46.67;21.37;;;;;;;-2.26;79.56;101483.59;5085614;28;20277;-87
2022/03/19 03:45:15;;;;;;;49.87;21.33;;;;;;;-3.65;80.21;101202.41;5084331;28;20179;-87
2022/03/19 03:47:40;;;;;;;47.27;19.20;;;;;;;-1.28;79.03;101588.81;5066625;28;20697;-87
2022/03/19 03:50:06;;;;;;;42.90;17.87;;;;;;;-2.91;79.06;101324.91;5085503;28;20633;-88
2022/03/19 03:52:32;;;;;;;42.90;19.33;;;;;;;-0.93;78.41;101622.09;5065587;28;20237;-87
2022/03/19 03:54:57;;;;;;;44.10;19.77;;;;;;;-3.13;77.62;101266.84;5083867;28;20188;-86
2022/03/19 03:57:23;;;;;;;42.50;18.33;;;;;;;-1.05;78.06;101621.47;5072609;28;20169;-85
2022/03/19 03:59:50;;;;;;;43.70;19.03;;;;;;;-2.52;77.92;101408.38;5086198;28;20164;-85
2022/03/19 04:02:16;;;;;;;44.30;18.65;;;;;;;-3.60;78.09;101235.19;5081950;28;20335;-85
2022/03/19 04:04:42;;;;;;;44.58;19.08;;;;;;;-4.06;78.63;101140.94;5084669;28;20239;-87
2022/03/19 04:07:07;;;;;;;44.97;19.23;;;;;;;-4.07;78.41;101099.63;5085408;28;20192;-86
2022/03/19 04:09:33;;;;;;;43.10;20.67;;;;;;;-2.76;77.92;101336.78;5065057;28;20198;-87
2022/03/19 04:11:58;;;;;;;42.63;20.27;;;;;;;-1.82;78.70;101528.19;5066749;28;20258;-86
2022/03/19 04:14:24;;;;;;;45.40;19.20;;;;;;;-2.81;78.60;101331.94;5084690;28;20271;-86
2022/03/19 04:16:49;;;;;;;51.87;22.23;;;;;;;-1.19;78.70;101626.31;5083597;28;20160;-86
2022/03/19 04:19:15;;;;;;;54.83;22.80;;;;;;;-3.63;79.48;101237.28;5067885;28;20168;-89
2022/03/19 04:21:40;;;;;;;50.00;20.93;;;;;;;-3.48;79.53;101228.41;5084761;28;20261;-86
2022/03/19 04:24:06;;;;;;;46.77;22.30;;;;;;;-2.99;79.49;101300.78;5086411;28;20164;-89
2022/03/19 04:26:31;;;;;;;47.57;21.00;;;;;;;-2.17;78.36;101411.19;5067211;28;20671;-88
2022/03/19 04:28:57;;;;;;;52.03;20.90;;;;;;;-1.94;78.03;101446.31;5083187;28;20192;-86
2022/03/19 04:31:22;;;;;;;48.20;20.77;;;;;;;-2.83;79.65;101402.72;5084196;28;20175;-88
2022/03/19 04:33:48;;;;;;;62.13;24.33;;;;;;;-1.50;81.39;101626.56;5066488;28;20560;-87
2022/03/19 04:36:35;;;;;;;56.27;21.83;;;;;;;-2.27;81.84;101502.53;5064760;28;20177;-85
2022/03/19 04:39:03;;;;;;;50.13;19.95;;;;;;;-2.13;81.31;101472.91;5062571;28;20169;-88
2022/03/19 04:41:29;;;;;;;48.38;21.90;;;;;;;-3.12;80.26;101308.25;5066570;28;20275;-89
2022/03/19 04:43:55;;;;;;;54.97;22.63;;;;;;;-1.20;79.27;101615.50;5093879;28;20639;-88
2022/03/19 04:46:21;;;;;;;75.30;30.90;;;;;;;-1.13;78.83;101628.69;5074603;28;20169;-88
2022/03/19 04:48:47;;;;;;;100.28;40.50;;;;;;;-3.24;78.64;101229.06;5092452;28;20191;-89
2022/03/19 04:51:16;;;;;;;113.27;44.90;;;;;;;-0.85;78.95;101629.78;5087066;28;20227;-86
2022/03/19 04:53:42;;;;;;;116.65;47.78;;;;;;;-0.84;79.21;101641.53;5071087;28;20221;-89
2022/03/19 04:56:08;;;;;;;105.70;44.55;;;;;;;-0.86;79.00;101633.00;5088582;28;20172;-87
2022/03/19 04:58:34;;;;;;;184.47;76.07;;;;;;;-1.56;79.56;101494.16;5074715;28;20234;-87
2022/03/19 05:01:00;;;;;;;170.57;65.30;;;;;;;-0.55;78.93;101637.66;5100258;28;20149;-87
2022/03/19 05:03:26;;;;;;;182.38;81.65;;;;;;;-2.25;78.65;101334.94;5084235;28;20175;-87
2022/03/19 05:05:52;;;;;;;183.13;79.00;;;;;;;-1.50;78.77;101457.69;5096969;28;20183;-87
2022/03/19 05:08:18;;;;;;;168.60;62.87;;;;;;;-0.52;78.30;101618.09;5092212;28;20177;-88
2022/03/19 05:13:28;;;;;;;93.13;43.33;;;;;;;-1.13;76.79;101505.34;5091839;28;20202;-87
2022/03/19 05:15:54;;;;;;;101.00;41.73;;;;;;;-0.29;76.26;101635.84;5075152;28;20267;-88
2022/03/19 05:18:19;;;;;;;99.20;42.27;;;;;;;-1.71;76.78;101441.75;5073414;28;20268;-87
2022/03/19 05:20:45;;;;;;;57.77;27.77;;;;;;;-2.08;76.80;101409.88;5092631;28;20163;-88
2022/03/19 05:23:11;;;;;;;68.73;30.30;;;;;;;-2.15;77.03;101369.22;5096744;28;20216;-88
2022/03/19 05:25:36;;;;;;;62.67;28.50;;;;;;;-1.13;77.15;101520.25;5082130;28;20243;-89
2022/03/19 05:28:03;;;;;;;60.73;28.37;;;;;;;-0.41;76.95;101634.38;5087076;28;20259;-89
2022/03/19 05:30:28;;;;;;;58.70;25.60;;;;;;;-1.81;76.29;101373.56;5065740;28;20183;-89
2022/03/19 05:32:54;;;;;;;55.53;24.13;;;;;;;-2.26;76.52;101315.81;5066802;28;20624;-88
2022/03/19 05:35:21;;;;;;;56.60;24.70;;;;;;;-1.56;78.20;101474.31;5063998;28;20183;-88
2022/03/19 05:37:49;;;;;;;60.28;28.35;;;;;;;-1.49;79.03;101483.41;5080299;28;20168;-89
2022/03/19 05:40:16;;;;;;;72.82;31.73;;;;;;;-0.45;77.93;101612.28;5064039;28;20176;-88
2022/03/19 05:42:42;;;;;;;63.92;29.63;;;;;;;-2.09;78.35;101368.41;5065637;28;20632;-88
2022/03/19 05:45:09;;;;;;;70.43;29.63;;;;;;;-2.51;79.31;101330.81;5081569;28;20234;-87
2022/03/19 05:47:36;;;;;;;66.60;28.67;;;;;;;-0.66;79.94;101648.75;5064710;28;20604;-88
2022/03/19 05:50:02;;;;;;;48.55;20.33;;;;;;;-0.59;79.25;101620.56;5068050;28;20179;-87
2022/03/19 05:52:28;;;;;;;56.77;23.80;;;;;;;-3.19;78.66;101117.50;5082339;28;20644;-87
2022/03/19 05:54:53;;;;;;;53.37;20.40;;;;;;;-2.67;76.53;101138.78;5083474;28;20187;-87
2022/03/19 05:57:19;;;;;;;34.33;14.77;;;;;;;-0.77;76.11;101523.84;5082476;28;20175;-88
2022/03/19 05:59:44;;;;;;;54.13;24.83;;;;;;;-1.56;75.69;101361.66;5084364;28;20251;-89
2022/03/19 06:02:09;;;;;;;48.33;21.90;;;;;;;-1.30;73.49;101363.25;5083944;28;20220;-89
2022/03/19 06:04:35;;;;;;;47.67;21.90;;;;;;;0.48;72.29;101638.63;5065449;28;20161;-88
2022/03/19 06:07:02;;;;;;;47.90;22.43;;;;;;;-0.27;72.41;101522.44;5082137;28;20243;-88
2022/03/19 06:09:27;;;;;;;42.42;17.35;;;;;;;-3.00;71.99;101041.41;5083874;28;20224;-87
2022/03/19 06:11:53;;;;;;;42.47;19.27;;;;;;;-0.69;72.42;101484.25;5081862;28;20165;-88
2022/03/19 06:14:18;;;;;;;42.20;19.40;;;;;;;-1.97;71.98;101264.78;5085494;28;20274;-88
2022/03/19 06:16:44;;;;;;;42.60;21.43;;;;;;;-1.80;71.39;101258.72;5083521;28;20176;-88
2022/03/19 06:19:10;;;;;;;30.67;13.48;;;;;;;-0.23;70.65;101523.00;5060593;28;20164;-87
2022/03/19 06:21:35;;;;;;;41.90;19.63;;;;;;;-1.32;70.82;101367.16;5082537;28;20202;-88
2022/03/19 06:24:03;;;;;;;45.43;21.63;;;;;;;0.16;70.29;101576.66;5064018;28;20531;-88
2022/03/19 06:26:29;;;;;;;48.40;24.50;;;;;;;-0.09;69.64;101527.13;5080913;28;20190;-89
2022/03/19 06:28:54;;;;;;;53.90;25.67;;;;;;;-1.31;68.25;101249.69;5064528;28;20179;-89
2022/03/19 06:31:20;;;;;;;48.37;22.60;;;;;;;-0.57;67.74;101409.31;5065158;28;20165;-89
2022/03/19 06:33:45;;;;;;;27.83;14.13;;;;;;;-1.03;67.03;101301.94;5081226;28;20191;-88
2022/03/19 06:38:56;;;;;;;43.63;20.05;;;;;;;-0.67;67.72;101321.22;5079396;28;20259;-87
2022/03/19 06:41:23;;;;;;;45.83;21.13;;;;;;;0.14;66.03;101503.34;5081609;28;20191;-88
2022/03/19 06:43:49;;;;;;;43.50;18.92;;;;;;;0.24;68.07;101622.38;5082506;28;20156;-87
2022/03/19 06:46:14;;;;;;;43.90;19.23;;;;;;;-0.11;69.55;101568.38;5064403;28;20168;-88
2022/03/19 06:48:41;;;;;;;48.40;17.53;;;;;;;0.08;69.52;101566.47;5064895;28;20171;-89
2022/03/19 06:51:07;;;;;;;38.85;16.73;;;;;;;-0.28;67.93;101505.75;5066445;28;20191;-88
2022/03/19 06:53:32;;;;;;;43.60;20.67;;;;;;;0.06;68.15;101552.94;5067932;28;20752;-89
2022/03/19 06:55:58;;;;;;;46.00;21.60;;;;;;;0.72;68.19;101647.19;5069438;28;20168;-89
2022/03/19 06:58:23;;;;;;;31.23;12.50;;;;;;;-1.14;66.61;101257.53;5083392;28;20255;-87
2022/03/19 07:00:49;;;;;;;48.43;21.60;;;;;;;1.25;67.41;101641.91;5069838;28;20635;-88
2022/03/19 07:03:15;;;;;;;41.72;19.08;;;;;;;0.03;64.94;101386.66;5083923;28;20164;-88
2022/03/19 07:05:40;;;;;;;43.17;19.47;;;;;;;-0.55;62.87;101296.00;5090744;28;20176;-88
2022/03/19 07:08:08;;;;;;;37.63;16.77;;;;;;;-0.16;63.68;101347.91;5070538;28;20177;-90
2022/03/19 07:10:34;;;;;;;47.42;20.23;;;;;;;-0.16;63.75;101365.31;5069773;28;20195;-88
2022/03/19 07:13:00;;;;;;;48.10;24.90;;;;;;;0.02;65.39;101416.38;5068726;28;20317;-88
2022/03/19 07:15:30;;;;;;;38.67;19.17;;;;;;;0.50;63.15;101389.63;5087426;28;20325;-88
2022/03/19 07:18:00;;;;;;;70.93;28.47;;;;;;;2.39;62.58;101641.72;5071305;28;20169;-89
2022/03/19 07:20:27;;;;;;;61.33;25.90;;;;;;;0.17;60.13;101194.91;5068262;28;20922;-88
2022/03/19 07:22:58;;;;;;;65.47;25.93;;;;;;;-0.16;59.05;101054.22;5069575;28;20402;-88
2022/03/19 07:25:28;;;;;;;36.03;16.83;;;;;;;1.32;56.39;101300.06;5068536;28;20786;-86
2022/03/19 07:27:56;;;;;;;36.07;17.73;;;;;;;2.97;53.92;101503.00;5085617;28;20509;-89
2022/03/19 07:30:22;;;;;;;34.57;16.90;;;;;;;2.57;54.25;101497.88;5087691;28;20409;-88
2022/03/19 07:32:48;;;;;;;34.07;17.67;;;;;;;2.80;54.55;101591.25;5088138;28;20502;-87
2022/03/19 07:35:14;;;;;;;38.33;19.17;;;;;;;3.39;54.47;101609.31;5084474;28;20215;-86
2022/03/19 07:37:41;;;;;;;46.73;24.07;;;;;;;2.16;53.04;101296.00;5072031;28;20175;-89
2022/03/19 07:40:08;;;;;;;34.43;16.73;;;;;;;1.60;51.27;101259.06;5084904;28;20418;-91
2022/03/19 07:42:35;;;;;;;31.70;16.67;;;;;;;4.11;50.51;101602.06;5093157;28;20491;-91
2022/03/19 07:45:02;;;;;;;36.00;18.20;;;;;;;2.05;49.63;101283.09;5071166;28;20398;-90
2022/03/19 07:47:29;;;;;;;41.80;20.03;;;;;;;2.78;48.01;101322.59;5072332;28;20479;-90
2022/03/19 07:49:54;;;;;;;36.87;17.43;;;;;;;5.11;46.29;101622.38;5068454;28;20422;-89
2022/03/19 07:52:20;;;;;;;50.30;22.90;;;;;;;4.02;44.95;101335.44;5084427;28;20418;-90
2022/03/19 07:54:45;;;;;;;56.20;22.33;;;;;;;4.56;44.53;101410.25;5086167;28;20195;-90
2022/03/19 07:57:11;;;;;;;77.63;26.43;;;;;;;3.93;40.97;101276.00;5087059;28;20172;-88
2022/03/19 07:59:37;;;;;;;104.30;42.03;;;;;;;1.82;40.71;100897.72;5099958;28;20168;-89
2022/03/19 08:02:04;;;;;;;30.40;16.57;;;;;;;3.04;40.44;101101.78;5103677;28;20265;-89
2022/03/19 08:04:30;;;;;;;41.60;23.23;;;;;;;5.77;39.49;101604.66;5074546;28;20431;-90
2022/03/19 08:06:56;;;;;;;22.33;11.57;;;;;;;5.82;39.03;101641.22;5074791;28;20422;-91
2022/03/19 08:09:23;;;;;;;24.27;11.97;;;;;;;2.85;38.84;101096.56;5072915;28;20195;-88
2022/03/19 08:11:49;;;;;;;25.73;12.97;;;;;;;3.15;38.32;101103.72;5091401;28;20175;-89
2022/03/19 08:14:16;;;;;;;51.70;20.33;;;;;;;2.90;38.37;101028.75;5072000;28;20448;-88
2022/03/19 08:16:42;;;;;;;29.07;14.13;;;;;;;6.34;37.75;101619.53;5069451;28;20418;-88
2022/03/19 08:19:11;;;;;;;37.97;17.43;;;;;;;5.09;37.73;101356.88;5069913;28;20402;-89
2022/03/19 08:21:36;;;;;;;46.43;20.67;;;;;;;5.92;37.63;101618.78;5069827;28;20177;-89
2022/03/19 08:24:02;;;;;;;35.90;16.97;;;;;;;5.97;38.33;101610.06;5086853;28;20404;-90
2022/03/19 08:26:27;;;;;;;258.47;96.10;;;;;;;3.50;37.45;101119.00;5066853;28;20667;-90
2022/03/19 08:28:53;;;;;;;36.53;15.60;;;;;;;5.67;38.00;101463.81;5085410;28;20175;-88
2022/03/19 08:31:18;;;;;;;33.17;15.17;;;;;;;5.89;38.01;101603.41;5068676;28;20199;-89
2022/03/19 08:33:44;;;;;;;28.53;13.83;;;;;;;4.80;38.29;101373.25;5066340;28;20644;-88
2022/03/19 08:36:09;;;;;;;33.03;16.67;;;;;;;4.24;38.82;101362.66;5085579;28;20283;-88
2022/03/19 08:41:19;;;;;;;31.47;15.37;;;;;;;4.10;38.23;101205.88;5086580;28;20172;-92
2022/03/19 08:43:44;;;;;;;32.40;16.27;;;;;;;5.72;37.77;101470.16;5082650;28;20427;-88
2022/03/19 08:46:11;;;;;;;21.33;11.27;;;;;;;6.56;36.82;101584.69;5085343;28;20188;-89
2022/03/19 08:48:36;;;;;;;32.97;15.90;;;;;;;4.86;38.29;101384.78;5085802;28;20229;-89
2022/03/19 08:53:47;;;;;;;32.03;14.57;;;;;;;5.22;37.18;101403.41;5084707;28;20222;-89
2022/03/19 08:56:12;;;;;;;23.23;12.87;;;;;;;5.72;36.62;101495.28;5085640;28;20406;-88
2022/03/19 08:58:38;;;;;;;61.00;33.97;;;;;;;5.12;37.14;101390.69;5068006;28;20168;-89
2022/03/19 09:01:04;;;;;;;28.23;17.57;;;;;;;5.74;36.83;101554.13;5065955;28;20169;-88
2022/03/19 09:03:29;;;;;;;31.70;14.03;;;;;;;6.36;35.97;101601.31;5073538;28;20232;-88
2022/03/19 09:05:55;;;;;;;67.30;28.00;;;;;;;6.43;36.15;101552.44;5066160;28;20168;-88
2022/03/19 09:08:21;;;;;;;42.47;15.87;;;;;;;6.09;35.81;101457.88;5065388;28;20259;-89
2022/03/19 09:10:46;;;;;;;20.97;11.83;;;;;;;6.26;35.14;101558.41;5066991;28;20167;-89
2022/03/19 09:13:11;;;;;;;23.40;11.67;;;;;;;5.23;35.97;101382.56;5065866;28;20746;-91
2022/03/19 09:15:37;;;;;;;24.67;13.40;;;;;;;6.50;35.47;101597.59;5065432;28;20263;-88
2022/03/19 09:18:05;;;;;;;23.53;11.43;;;;;;;6.56;35.35;101604.84;5066307;28;20199;-90
2022/03/19 09:20:31;;;;;;;19.23;10.77;;;;;;;6.61;35.52;101593.56;5081248;28;20252;-89
2022/03/19 09:22:56;;;;;;;18.60;10.20;;;;;;;4.52;35.12;101232.63;5067635;28;20437;-88
2022/03/19 09:25:22;;;;;;;19.93;10.70;;;;;;;4.26;35.57;101228.34;5084621;28;20177;-90
2022/03/19 09:27:48;;;;;;;31.80;16.23;;;;;;;6.01;35.91;101483.03;5067434;28;20677;-89
2022/03/19 09:30:13;;;;;;;24.20;11.23;;;;;;;4.85;34.89;101279.25;5069412;28;20164;-87
2022/03/19 09:32:39;;;;;;;20.33;10.07;;;;;;;4.93;34.87;101364.56;5099655;28;20226;-89
2022/03/19 09:35:05;;;;;;;17.70;9.83;;;;;;;4.49;35.71;101311.69;5082772;28;20291;-88
2022/03/19 09:37:31;;;;;;;54.83;24.10;;;;;;;5.83;36.14;101602.75;5073224;28;20184;-90
2022/03/19 09:39:57;;;;;;;18.17;10.30;;;;;;;5.62;35.79;101498.56;5056659;28;20441;-89
2022/03/19 09:42:22;;;;;;;30.23;15.57;;;;;;;6.15;36.52;101604.31;5075967;28;20426;-89
2022/03/19 09:44:48;;;;;;;21.00;10.70;;;;;;;5.03;35.94;101419.03;5055816;28;20168;-88
2022/03/19 09:47:14;;;;;;;21.77;11.23;;;;;;;5.14;35.74;101374.16;5067200;28;20177;-88
2022/03/19 09:49:40;;;;;;;23.20;11.77;;;;;;;5.66;35.83;101384.16;5068604;28;20189;-88
2022/03/19 09:52:05;;;;;;;23.07;13.00;;;;;;;4.96;34.64;101282.03;5068027;28;20407;-88
2022/03/19 09:54:31;;;;;;;27.50;15.07;;;;;;;2.85;35.21;100894.88;5068805;28;20193;-86
2022/03/19 09:56:57;;;;;;;28.27;15.87;;;;;;;4.94;34.93;101234.97;5055908;28;20177;-88
2022/03/19 09:59:23;;;;;;;19.63;10.77;;;;;;;6.32;34.35;101435.72;5058906;28;20181;-88
2022/03/19 10:01:49;;;;;;;16.80;9.50;;;;;;;6.86;34.72;101534.69;5069437;28;20540;-87
2022/03/19 10:04:18;;;;;;;21.07;11.10;;;;;;;7.12;35.18;101594.25;5052330;28;20222;-88
2022/03/19 10:09:42;;;;;;;22.70;12.80;;;;;;;8.87;33.63;101581.38;5095445;28;20409;-85
2022/03/19 10:12:21;;;;;;;29.17;15.37;;;;;;;7.66;32.92;101395.84;5094340;28;20394;-88
2022/03/19 10:14:52;;;;;;;24.67;13.80;;;;;;;8.76;33.55;101541.69;5080112;28;20527;-80
2022/03/19 10:17:32;;;;;;;23.80;12.90;;;;;;;8.77;33.29;101567.84;5092169;28;20435;-80
2022/03/19 10:20:03;;;;;;;19.90;10.03;;;;;;;8.72;33.68;101562.41;5092213;28;20164;-82
2022/03/19 10:22:29;;;;;;;38.80;20.43;;;;;;;8.87;33.23;101507.28;5091209;28;20406;-80
2022/03/19 10:24:57;;;;;;;25.60;13.87;;;;;;;7.35;32.87;101170.56;5091938;28;20160;-81
2022/03/19 10:27:23;;;;;;;21.50;12.87;;;;;;;9.38;32.52;101571.38;5092309;28;20195;-80
2022/03/19 10:30:01;;;;;;;27.43;14.37;;;;;;;6.65;32.76;101140.13;5092395;28;20160;-81
2022/03/19 10:32:28;;;;;;;27.10;14.97;;;;;;;7.43;33.38;101250.22;5073830;28;20167;-82
2022/03/19 10:34:54;;;;;;;20.57;11.93;;;;;;;9.17;32.70;101570.47;5091610;28;20697;-80
2022/03/19 10:37:39;;;;;;;26.33;14.97;;;;;;;9.19;33.14;101557.97;5092471;28;20164;-79
2022/03/19 10:40:09;;;;;;;22.90;12.10;;;;;;;6.06;34.52;101217.84;5102973;28;20164;-80
2022/03/19 10:42:40;;;;;;;19.93;11.10;;;;;;;5.76;35.09;101282.13;5098065;28;20178;-79
2022/03/19 10:45:08;;;;;;;18.63;11.57;;;;;;;4.95;35.41;101192.44;5094122;28;20402;-80
2022/03/19 10:47:45;;;;;;;20.67;12.10;;;;;;;7.29;35.16;101550.47;5073389;28;20475;-80
2022/03/19 10:50:17;;;;;;;21.67;11.90;;;;;;;6.48;36.09;101556.31;5092576;28;20818;-87
2022/03/19 10:52:43;;;;;;;23.10;11.83;;;;;;;4.29;36.28;101141.75;5093522;28;20402;-88
2022/03/19 10:55:09;;;;;;;19.37;11.03;;;;;;;6.90;35.46;101458.69;5095993;28;20452;-87
2022/03/19 10:57:35;;;;;;;16.97;9.47;;;;;;;7.91;34.38;101535.03;5093588;28;20239;-86
2022/03/19 11:00:01;;;;;;;21.60;11.10;;;;;;;7.18;34.47;101430.22;5093110;28;20487;-87
2022/03/19 11:02:28;;;;;;;26.97;12.60;;;;;;;6.46;34.18;101291.97;5093260;28;20227;-86
2022/03/19 11:04:59;;;;;;;20.40;10.40;;;;;;;7.98;33.52;101527.25;5075915;28;20479;-86
2022/03/19 11:07:30;;;;;;;27.50;14.00;;;;;;;7.19;34.09;101394.22;5075499;28;20449;-86
2022/03/19 11:09:57;;;;;;;25.87;14.73;;;;;;;7.97;33.57;101515.38;5075271;28;20204;-86
2022/03/19 11:12:27;;;;;;;24.07;13.37;;;;;;;7.91;33.88;101508.16;5055884;28;20556;-86
2022/03/19 11:14:56;;;;;;;25.40;13.13;;;;;;;5.28;34.73;101059.09;5077623;28;20216;-85
2022/03/19 11:17:36;;;;;;;21.57;11.23;;;;;;;7.85;33.64;101438.66;5089379;28;20227;-86
2022/03/19 11:20:10;;;;;;;19.87;11.57;;;;;;;8.03;32.98;101389.78;5081890;28;20418;-86
2022/03/19 11:22:42;;;;;;;18.63;11.40;;;;;;;8.34;32.03;101373.13;5056710;28;20164;-87
2022/03/19 11:25:26;;;;;;;18.60;11.20;;;;;;;9.21;32.54;101495.78;5055475;28;20161;-86